createdAt,value
2019-04-04T00:02:26.454Z,55.80
2019-04-04T00:05:01.559Z,55.80
2019-04-04T00:07:30.796Z,55.70
2019-04-04T00:10:14.978Z,55.80
2019-04-04T00:12:46.350Z,55.60
2019-04-04T00:15:33.875Z,56.00
2019-04-04T00:18:05.137Z,56.20
2019-04-04T00:20:34.421Z,55.90
2019-04-04T00:23:05.038Z,56.30
2019-04-04T00:25:40.287Z,55.80
2019-04-04T00:28:08.973Z,56.00
2019-04-04T00:30:44.143Z,55.90
2019-04-04T00:33:13.358Z,56.20
2019-04-04T00:35:43.018Z,56.40
2019-04-04T00:38:24.461Z,56.40
2019-04-04T00:41:12.993Z,56.40
2019-04-04T00:44:01.255Z,55.90
2019-04-04T00:46:32.363Z,56.30
2019-04-04T00:49:04.551Z,56.40
2019-04-04T00:51:32.518Z,56.70
2019-04-04T00:54:02.210Z,56.40
2019-04-04T00:56:32.589Z,56.30
2019-04-04T00:59:12.745Z,56.30
2019-04-04T01:01:55.067Z,56.10
2019-04-04T01:04:31.851Z,56.20
2019-04-04T01:07:07.641Z,56.10
2019-04-04T01:09:37.310Z,56.10
2019-04-04T01:12:12.457Z,55.90
2019-04-04T01:14:41.635Z,55.90
2019-04-04T01:17:10.957Z,56.20
2019-04-04T01:19:40.168Z,56.10
2019-04-04T01:22:09.354Z,56.20
2019-04-04T01:24:44.416Z,55.90
2019-04-04T01:27:13.683Z,56.10
2019-04-04T01:29:42.808Z,56.20
2019-04-04T01:32:12.114Z,56.10
2019-04-04T01:34:41.406Z,56.20
2019-04-04T01:37:13.733Z,56.20
2019-04-04T01:39:48.742Z,56.20
2019-04-04T01:42:17.973Z,55.80
2019-04-04T01:44:47.704Z,56.00
2019-04-04T01:47:17.577Z,56.00
2019-04-04T01:49:46.821Z,56.10
2019-04-04T01:52:15.946Z,56.00
2019-04-04T01:54:45.122Z,55.80
2019-04-04T01:57:29.778Z,55.90
2019-04-04T02:00:15.242Z,56.20
2019-04-04T02:02:51.911Z,55.90
2019-04-04T02:05:31.144Z,56.50
2019-04-04T02:08:02.392Z,56.30
2019-04-04T02:10:34.879Z,56.40
2019-04-04T02:13:09.847Z,56.50
2019-04-04T02:15:42.851Z,56.60
2019-04-04T02:18:25.791Z,56.30
2019-04-04T02:21:07.433Z,56.30
2019-04-04T02:23:46.106Z,56.00
2019-04-04T02:26:15.399Z,56.50
2019-04-04T02:28:45.638Z,56.50
2019-04-04T02:31:20.730Z,56.20
2019-04-04T02:33:54.192Z,56.30
2019-04-04T02:36:25.451Z,56.30
2019-04-04T02:39:11.170Z,56.10
2019-04-04T02:41:40.504Z,56.10
2019-04-04T02:44:10.767Z,56.30
2019-04-04T02:46:44.282Z,56.10
2019-04-04T02:49:11.288Z,56.20
2019-04-04T02:51:46.519Z,56.20
2019-04-04T02:54:27.752Z,56.30
2019-04-04T02:57:09.164Z,56.10
2019-04-04T02:59:43.039Z,56.20
2019-04-04T03:02:12.377Z,56.40
2019-04-04T03:04:50.650Z,56.30
2019-04-04T03:07:20.507Z,56.10
2019-04-04T03:09:56.523Z,56.10
2019-04-04T03:12:26.830Z,56.10
2019-04-04T03:17:41.842Z,56.00
2019-04-04T03:20:16.341Z,56.20
2019-04-04T03:22:46.696Z,56.30
2019-04-04T03:25:15.978Z,56.10
2019-04-04T03:27:52.230Z,56.50
2019-04-04T03:30:25.519Z,56.60
2019-04-04T03:32:56.759Z,56.60
2019-04-04T03:35:29.160Z,56.60
2019-04-04T03:38:04.780Z,56.70
2019-04-04T03:40:34.195Z,56.50
2019-04-04T03:43:03.414Z,56.60
2019-04-04T03:45:38.843Z,56.70
2019-04-04T03:48:17.413Z,56.60
2019-04-04T03:50:47.715Z,56.90
2019-04-04T03:53:18.068Z,56.70
2019-04-04T03:56:01.233Z,56.70
2019-04-04T03:58:31.669Z,56.70
2019-04-04T04:01:01.926Z,57.00
2019-04-04T04:03:31.801Z,57.30
2019-04-04T04:06:08.439Z,57.00
2019-04-04T04:09:11.028Z,57.40
2019-04-04T04:11:51.841Z,57.00
2019-04-04T04:14:22.630Z,57.00
2019-04-04T04:16:58.530Z,57.50
2019-04-04T04:19:31.317Z,57.30
2019-04-04T04:22:01.213Z,57.10
2019-04-04T04:24:38.218Z,57.30
2019-04-04T04:27:19.613Z,57.10
2019-04-04T04:29:48.780Z,57.10
2019-04-04T04:32:56.983Z,57.20
2019-04-04T04:35:28.443Z,57.60
2019-04-04T04:37:57.717Z,57.40
2019-04-04T04:40:27.475Z,57.50
2019-04-04T04:42:59.822Z,57.40
2019-04-04T04:45:28.756Z,57.70
2019-04-04T04:48:14.311Z,57.80
2019-04-04T04:50:43.512Z,57.60
2019-04-04T04:53:24.806Z,57.50
2019-04-04T04:55:54.392Z,57.40
2019-04-04T04:58:23.592Z,57.50
2019-04-04T05:00:56.853Z,57.30
2019-04-04T05:03:37.351Z,57.50
2019-04-04T05:06:14.004Z,57.50
2019-04-04T05:08:43.195Z,57.40
2019-04-04T05:11:14.548Z,57.70
2019-04-04T05:13:43.879Z,57.70
2019-04-04T05:16:19.756Z,58.40
2019-04-04T05:18:49.321Z,58.40
2019-04-04T05:21:28.898Z,57.50
2019-04-04T05:24:04.036Z,57.30
2019-04-04T05:26:49.792Z,57.50
2019-04-04T05:29:19.607Z,57.30
2019-04-04T05:32:09.121Z,57.60
2019-04-04T05:34:38.719Z,57.30
2019-04-04T05:37:08.409Z,57.60
2019-04-04T05:39:38.692Z,57.30
2019-04-04T05:42:09.828Z,57.30
2019-04-04T05:44:42.338Z,57.50
2019-04-04T05:47:23.007Z,57.20
2019-04-04T05:49:58.762Z,57.50
2019-04-04T05:52:34.154Z,57.70
2019-04-04T05:55:10.053Z,57.60
2019-04-04T05:57:39.487Z,57.60
2019-04-04T06:00:13.403Z,57.50
2019-04-04T06:02:45.059Z,57.40
2019-04-04T06:05:20.987Z,57.70
2019-04-04T06:07:53.536Z,57.50
2019-04-04T06:10:24.883Z,57.50
2019-04-04T06:12:54.334Z,57.60
2019-04-04T06:15:35.335Z,57.30
2019-04-04T06:18:11.814Z,57.10
2019-04-04T06:20:42.768Z,57.40
2019-04-04T06:23:11.921Z,57.80
2019-04-04T06:25:49.366Z,57.30
2019-04-04T06:28:20.617Z,57.30
2019-04-04T06:30:54.179Z,57.30
2019-04-04T06:33:26.718Z,57.40
2019-04-04T06:35:56.331Z,57.50
2019-04-04T06:38:25.569Z,57.50
2019-04-04T06:40:54.801Z,57.50
2019-04-04T06:43:26.394Z,57.20
2019-04-04T06:45:55.571Z,57.20
2019-04-04T06:48:29.777Z,57.50
2019-04-04T06:51:14.060Z,57.00
2019-04-04T06:53:46.887Z,56.30
2019-04-04T06:56:21.902Z,56.30
2019-04-04T06:58:51.163Z,56.10
2019-04-04T07:01:32.537Z,56.20
2019-04-04T07:04:05.914Z,56.10
2019-04-04T07:06:36.068Z,56.10
2019-04-04T07:09:09.529Z,55.80
2019-04-04T07:11:46.726Z,56.30
2019-04-04T07:14:15.864Z,55.70
2019-04-04T07:16:45.472Z,55.50
2019-04-04T07:19:23.587Z,55.40
2019-04-04T07:22:04.991Z,55.50
2019-04-04T07:24:47.030Z,56.00
2019-04-04T07:27:19.707Z,54.90
2019-04-04T07:29:56.895Z,54.70
2019-04-04T07:32:35.233Z,54.80
2019-04-04T07:35:06.052Z,54.30
2019-04-04T07:37:47.866Z,53.50
2019-04-04T07:40:20.191Z,54.30
2019-04-04T07:42:48.682Z,54.20
2019-04-04T07:45:19.957Z,54.60
2019-04-04T07:47:49.093Z,55.10
2019-04-04T07:50:18.262Z,54.10
2019-04-04T07:52:47.466Z,54.30
2019-04-04T07:55:16.634Z,52.90
2019-04-04T07:57:45.866Z,51.60
2019-04-04T08:00:15.244Z,51.10
2019-04-04T08:02:44.357Z,49.80
2019-04-04T08:05:13.666Z,49.30
2019-04-04T08:07:42.918Z,49.10
2019-04-04T08:10:20.616Z,49.20
2019-04-04T08:12:45.117Z,49.80
2019-04-04T08:15:16.838Z,48.80
2019-04-04T08:17:53.248Z,46.80
2019-04-04T08:20:23.722Z,46.30
2019-04-04T08:22:55.074Z,46.50
2019-04-04T08:25:25.274Z,44.80
2019-04-04T08:27:54.522Z,45.20
2019-04-04T08:30:23.857Z,45.10
2019-04-04T08:33:02.742Z,44.50
2019-04-04T08:35:33.378Z,44.30
2019-04-04T08:38:08.622Z,44.60
2019-04-04T08:40:46.201Z,44.50
2019-04-04T08:43:15.401Z,43.60
2019-04-04T08:45:45.972Z,44.10
2019-04-04T08:48:15.666Z,42.80
2019-04-04T08:50:45.180Z,42.60
2019-04-04T08:53:15.553Z,42.10
2019-04-04T08:55:46.743Z,41.60
2019-04-04T08:58:19.737Z,41.20
2019-04-04T09:00:51.426Z,40.80
2019-04-04T09:03:20.691Z,41.10
2019-04-04T09:05:50.494Z,40.80
2019-04-04T09:08:19.838Z,40.70
2019-04-04T09:10:49.014Z,40.90
2019-04-04T09:13:24.083Z,41.40
2019-04-04T09:15:53.258Z,41.50
2019-04-04T09:18:23.035Z,42.30
2019-04-04T09:20:52.923Z,42.40
2019-04-04T09:23:24.042Z,42.70
2019-04-04T09:26:05.018Z,42.90
2019-04-04T09:28:24.165Z,43.10
2019-04-04T09:30:53.411Z,43.00
2019-04-04T09:33:23.579Z,42.40
2019-04-04T09:35:53.197Z,42.70
2019-04-04T09:38:22.929Z,42.60
2019-04-04T09:40:54.450Z,41.60
2019-04-04T09:43:24.047Z,41.20
2019-04-04T09:45:57.426Z,41.00
2019-04-04T09:48:35.015Z,41.10
2019-04-04T09:51:10.360Z,41.80
2019-04-04T09:53:53.064Z,40.90
2019-04-04T09:56:17.784Z,40.90
2019-04-04T09:58:49.173Z,41.30
2019-04-04T10:01:18.935Z,41.30
2019-04-04T10:03:50.684Z,41.40
2019-04-04T10:06:29.033Z,41.00
2019-04-04T10:08:58.330Z,41.10
2019-04-04T10:11:37.338Z,41.70
2019-04-04T10:14:06.845Z,42.00
2019-04-04T10:16:42.212Z,41.80
2019-04-04T10:19:11.892Z,42.10
2019-04-04T10:21:50.526Z,42.30
2019-04-04T10:24:25.665Z,42.80
2019-04-04T10:26:55.925Z,42.80
2019-04-04T10:29:25.170Z,43.20
2019-04-04T10:31:59.943Z,43.30
2019-04-04T10:34:29.705Z,43.70
2019-04-04T10:36:58.874Z,44.30
2019-04-04T10:39:32.504Z,44.00
2019-04-04T10:42:15.559Z,44.30
2019-04-04T10:44:51.595Z,44.30
2019-04-04T10:47:28.062Z,44.60
2019-04-04T10:50:03.120Z,43.90
2019-04-04T10:52:39.115Z,43.30
2019-04-04T10:55:08.915Z,43.40
2019-04-04T10:57:38.497Z,42.60
2019-04-04T11:00:21.722Z,43.10
2019-04-04T11:02:51.841Z,43.10
2019-04-04T11:05:21.503Z,43.50
2019-04-04T11:08:05.329Z,44.40
2019-04-04T11:10:37.487Z,44.40
2019-04-04T11:13:32.458Z,44.50
2019-04-04T11:16:00.705Z,44.20
2019-04-04T11:18:37.071Z,44.10
2019-04-04T11:21:09.494Z,44.40
2019-04-04T11:23:38.977Z,44.10
2019-04-04T11:26:24.417Z,44.30
2019-04-04T11:29:03.194Z,44.20
2019-04-04T11:31:32.791Z,44.00
2019-04-04T11:34:17.399Z,44.10
2019-04-04T11:36:59.698Z,44.80
2019-04-04T11:39:35.112Z,44.60
2019-04-04T11:42:04.311Z,44.20
2019-04-04T11:44:33.618Z,44.10
2019-04-04T11:47:03.276Z,44.70
2019-04-04T11:49:36.583Z,44.60
2019-04-04T11:52:12.073Z,45.00
2019-04-04T11:54:57.993Z,45.20
2019-04-04T11:57:27.682Z,45.30
2019-04-04T11:59:56.931Z,45.50
2019-04-04T12:02:32.557Z,45.00
2019-04-04T12:05:14.022Z,45.10
2019-04-04T12:07:43.290Z,45.60
2019-04-04T12:10:12.890Z,45.00
2019-04-04T12:12:46.081Z,45.10
2019-04-04T12:15:15.189Z,45.20
2019-04-04T12:17:45.430Z,44.60
2019-04-04T12:20:22.893Z,45.40
2019-04-04T12:22:52.123Z,45.50
2019-04-04T12:25:30.483Z,44.90
2019-04-04T12:28:05.731Z,45.00
2019-04-04T12:30:37.294Z,45.30
2019-04-04T12:33:16.129Z,45.00
2019-04-04T12:35:53.247Z,45.20
2019-04-04T12:38:23.515Z,45.20
2019-04-04T12:41:01.796Z,45.50
2019-04-04T12:43:43.654Z,45.20
2019-04-04T12:46:13.419Z,45.30
2019-04-04T12:48:43.591Z,45.40
2019-04-04T12:51:12.875Z,45.20
2019-04-04T12:53:52.106Z,45.30
2019-04-04T12:56:33.462Z,46.00
2019-04-04T12:59:03.699Z,45.60
2019-04-04T13:01:37.402Z,45.50
2019-04-04T13:04:06.574Z,45.60
2019-04-04T13:06:35.762Z,45.70
2019-04-04T13:09:08.349Z,45.70
2019-04-04T13:11:37.711Z,45.60
2019-04-04T13:14:07.836Z,45.80
2019-04-04T13:16:37.918Z,46.40
2019-04-04T13:19:07.793Z,46.10
2019-04-04T13:21:39.404Z,46.10
2019-04-04T13:24:08.504Z,45.80
2019-04-04T13:26:38.481Z,45.60
2019-04-04T13:29:24.619Z,45.60
2019-04-04T13:31:54.317Z,46.00
2019-04-04T13:34:27.533Z,46.50
2019-04-04T13:36:56.738Z,46.40
2019-04-04T13:39:26.013Z,46.40
2019-04-04T13:42:00.376Z,46.10
2019-04-04T13:44:29.910Z,45.80
2019-04-04T13:47:02.811Z,45.40
2019-04-04T13:49:30.746Z,45.30
2019-04-04T13:52:05.267Z,45.40
2019-04-04T13:54:36.918Z,45.90
2019-04-04T13:57:18.722Z,46.40
2019-04-04T13:59:52.272Z,46.60
2019-04-04T14:02:22.018Z,46.50
2019-04-04T14:04:55.271Z,46.50
2019-04-04T14:07:24.012Z,46.10
2019-04-04T14:09:59.194Z,45.60
2019-04-04T14:12:30.488Z,45.80
2019-04-04T14:15:01.630Z,46.10
2019-04-04T14:17:31.242Z,46.70
2019-04-04T14:20:00.799Z,46.80
2019-04-04T14:22:40.731Z,46.90
2019-04-04T14:25:12.706Z,47.00
2019-04-04T14:27:42.975Z,47.40
2019-04-04T14:30:19.259Z,47.20
2019-04-04T14:32:50.108Z,47.30
2019-04-04T14:35:23.126Z,47.20
2019-04-04T14:37:54.605Z,48.30
2019-04-04T14:40:38.771Z,47.40
2019-04-04T14:43:17.514Z,47.80
2019-04-04T14:45:57.164Z,47.60
2019-04-04T14:48:28.834Z,48.00
2019-04-04T14:51:07.971Z,48.50
2019-04-04T14:53:43.434Z,48.50
2019-04-04T14:56:13.254Z,48.50
2019-04-04T14:58:43.326Z,48.20
2019-04-04T15:01:12.559Z,48.70
2019-04-04T15:03:42.464Z,49.50
2019-04-04T15:06:18.790Z,48.80
2019-04-04T15:08:58.584Z,48.90
2019-04-04T15:11:29.809Z,49.50
2019-04-04T15:14:01.090Z,49.60
2019-04-04T15:16:30.290Z,50.00
2019-04-04T15:18:59.791Z,50.20
2019-04-04T15:21:29.323Z,49.80
2019-04-04T15:24:14.015Z,50.00
2019-04-04T15:26:43.402Z,50.10
2019-04-04T15:29:13.621Z,49.60
2019-04-04T15:31:52.163Z,49.50
2019-04-04T15:34:21.345Z,49.50
2019-04-04T15:36:57.767Z,49.50
2019-04-04T15:39:28.911Z,49.60
2019-04-04T15:41:58.231Z,49.90
2019-04-04T15:44:27.435Z,49.70
2019-04-04T15:46:57.374Z,49.90
2019-04-04T15:49:28.772Z,49.80
2019-04-04T15:51:59.616Z,50.00
2019-04-04T15:54:28.999Z,49.80
2019-04-04T15:57:10.318Z,49.50
2019-04-04T15:59:39.972Z,50.00
2019-04-04T16:02:09.589Z,50.30
2019-04-04T16:05:02.145Z,50.00
2019-04-04T16:07:32.802Z,50.00
2019-04-04T16:10:02.885Z,50.10
2019-04-04T16:12:32.615Z,49.80
2019-04-04T16:15:17.106Z,50.10
2019-04-04T16:17:55.538Z,50.30
2019-04-04T16:20:27.331Z,50.60
2019-04-04T16:23:03.086Z,50.30
2019-04-04T16:25:36.566Z,50.80
2019-04-04T16:28:07.102Z,51.20
2019-04-04T16:30:36.680Z,50.90
2019-04-04T16:33:12.675Z,51.10
2019-04-04T16:35:41.901Z,50.80
2019-04-04T16:38:12.047Z,50.70
2019-04-04T16:40:43.716Z,50.80
2019-04-04T16:43:21.255Z,50.80
2019-04-04T16:45:51.585Z,50.90
2019-04-04T16:48:21.071Z,51.50
2019-04-04T16:51:01.143Z,51.50
2019-04-04T16:53:37.535Z,51.70
2019-04-04T16:56:07.255Z,52.00
2019-04-04T16:58:37.331Z,51.80
2019-04-04T17:01:07.261Z,52.80
2019-04-04T17:03:36.397Z,52.60
2019-04-04T17:06:20.140Z,52.70
2019-04-04T17:08:53.551Z,52.50
2019-04-04T17:11:28.103Z,52.70
2019-04-04T17:13:57.747Z,53.20
2019-04-04T17:16:27.476Z,52.80
2019-04-04T17:19:02.542Z,52.80
2019-04-04T17:21:41.011Z,52.90
2019-04-04T17:24:10.670Z,52.80
2019-04-04T17:26:40.077Z,52.70
2019-04-04T17:29:11.357Z,53.00
2019-04-04T17:31:46.828Z,53.00
2019-04-04T17:34:18.204Z,53.00
2019-04-04T17:36:55.167Z,52.90
2019-04-04T17:39:24.479Z,53.10
2019-04-04T17:41:54.664Z,53.10
2019-04-04T17:44:24.218Z,53.10
2019-04-04T17:46:56.252Z,54.10
2019-04-04T17:49:30.495Z,54.70
2019-04-04T17:52:02.941Z,55.00
2019-04-04T17:54:36.327Z,54.60
2019-04-04T17:57:05.617Z,54.50
2019-04-04T17:59:36.783Z,54.50
2019-04-04T18:02:11.761Z,54.60
2019-04-04T18:04:48.150Z,54.50
2019-04-04T18:07:14.004Z,54.80
2019-04-04T18:09:45.612Z,55.00
2019-04-04T18:12:16.960Z,54.70
2019-04-04T18:14:52.543Z,55.10
2019-04-04T18:17:22.255Z,55.10
2019-04-04T18:19:52.240Z,55.50
2019-04-04T18:22:33.013Z,55.00
2019-04-04T18:25:16.242Z,55.50
2019-04-04T18:27:46.456Z,55.90
2019-04-04T18:30:19.365Z,55.40
2019-04-04T18:32:48.575Z,55.80
2019-04-04T18:35:17.867Z,55.50
2019-04-04T18:37:57.655Z,55.90
2019-04-04T18:40:27.298Z,55.60
2019-04-04T18:43:06.884Z,55.70
2019-04-04T18:45:43.209Z,55.80
2019-04-04T18:48:35.749Z,56.40
2019-04-04T18:51:26.301Z,56.30
2019-04-04T18:53:57.821Z,56.50
2019-04-04T18:56:27.909Z,56.90
2019-04-04T18:58:58.048Z,57.50
2019-04-04T19:01:27.764Z,57.30
2019-04-04T19:03:57.003Z,57.60
2019-04-04T19:06:28.686Z,57.40
2019-04-04T19:09:15.848Z,57.30
2019-04-04T19:11:45.759Z,57.10
2019-04-04T19:14:15.314Z,57.30
2019-04-04T19:16:44.543Z,56.80
2019-04-04T19:19:14.479Z,56.80
2019-04-04T19:21:44.289Z,56.80
2019-04-04T19:24:13.477Z,57.10
2019-04-04T19:26:43.773Z,57.10
2019-04-04T19:29:26.124Z,56.80
2019-04-04T19:31:55.301Z,57.40
2019-04-04T19:34:26.332Z,57.40
2019-04-04T19:36:56.141Z,57.40
2019-04-04T19:39:26.508Z,57.70
2019-04-04T19:41:56.369Z,58.00
2019-04-04T19:44:37.588Z,58.00
2019-04-04T19:47:07.544Z,58.80
2019-04-04T19:49:46.784Z,59.10
2019-04-04T19:52:23.500Z,59.00
2019-04-04T19:55:02.625Z,58.50
2019-04-04T19:57:54.773Z,58.60
2019-04-04T20:00:24.175Z,58.70
2019-04-04T20:02:57.842Z,59.00
2019-04-04T20:05:37.314Z,59.50
2019-04-04T20:08:09.654Z,58.90
2019-04-04T20:10:41.725Z,59.70
2019-04-04T20:13:13.185Z,59.00
2019-04-04T20:15:42.286Z,58.70
2019-04-04T20:18:17.217Z,59.00
2019-04-04T20:20:55.199Z,59.10
2019-04-04T20:23:24.734Z,59.10
2019-04-04T20:25:54.222Z,59.50
2019-04-04T20:28:24.352Z,59.50
2019-04-04T20:30:54.471Z,59.10
2019-04-04T20:33:23.561Z,59.10
2019-04-04T20:35:54.870Z,58.80
2019-04-04T20:38:24.062Z,59.00
2019-04-04T20:41:00.043Z,59.20
2019-04-04T20:43:44.951Z,59.00
2019-04-04T20:46:23.460Z,59.50
2019-04-04T20:48:55.334Z,59.20
2019-04-04T20:51:35.043Z,59.10
2019-04-04T20:54:07.562Z,59.10
2019-04-04T20:56:36.741Z,58.90
2019-04-04T20:59:10.849Z,59.00
2019-04-04T21:01:40.323Z,59.60
2019-04-04T21:04:19.388Z,59.40
2019-04-04T21:06:48.820Z,61.10
2019-04-04T21:09:27.486Z,59.40
2019-04-04T21:11:59.667Z,59.60
2019-04-04T21:14:38.700Z,59.20
2019-04-04T21:17:08.165Z,60.70
2019-04-04T21:19:50.600Z,60.20
2019-04-04T21:22:32.421Z,60.50
2019-04-04T21:25:22.882Z,59.90
2019-04-04T21:27:53.036Z,60.10
2019-04-04T21:30:29.387Z,59.80
2019-04-04T21:33:04.634Z,59.80
2019-04-04T21:35:35.798Z,60.50
2019-04-04T21:38:24.647Z,59.90
2019-04-04T21:40:57.901Z,60.30
2019-04-04T21:43:29.522Z,60.30
2019-04-04T21:45:58.686Z,60.00
2019-04-04T21:48:37.005Z,59.90
2019-04-04T21:51:08.298Z,59.90
2019-04-04T21:53:58.593Z,59.70
2019-04-04T21:56:28.095Z,60.30
2019-04-04T21:58:57.278Z,60.10
2019-04-04T22:01:42.117Z,60.30
2019-04-04T22:04:17.147Z,60.40
2019-04-04T22:06:52.647Z,61.30
2019-04-04T22:09:21.796Z,60.60
2019-04-04T22:11:59.079Z,60.80
2019-04-04T22:14:30.248Z,60.20
2019-04-04T22:16:59.408Z,60.60
2019-04-04T22:19:43.956Z,60.50
2019-04-04T22:22:13.381Z,60.70
2019-04-04T22:24:46.630Z,61.90
2019-04-04T22:27:21.062Z,61.70
2019-04-04T22:29:50.140Z,61.30
2019-04-04T22:32:28.694Z,61.70
2019-04-04T22:35:14.002Z,61.10
2019-04-04T22:38:01.294Z,61.10
2019-04-04T22:40:36.626Z,61.80
2019-04-04T22:43:15.974Z,61.20
2019-04-04T22:45:54.661Z,62.20
2019-04-04T22:48:31.989Z,61.30
2019-04-04T22:51:07.023Z,62.10
2019-04-04T22:53:36.103Z,62.00
2019-04-04T22:56:06.231Z,62.10
2019-04-04T22:58:56.518Z,61.90
2019-04-04T23:01:29.244Z,62.20
2019-04-04T23:03:58.616Z,62.50
2019-04-04T23:06:29.967Z,62.00
2019-04-04T23:09:12.148Z,62.70
2019-04-04T23:11:50.575Z,62.60
2019-04-04T23:14:24.018Z,62.40
2019-04-04T23:16:53.185Z,63.40
2019-04-04T23:19:29.534Z,62.90
2019-04-04T23:22:18.575Z,63.00
2019-04-04T23:24:55.965Z,62.80
2019-04-04T23:27:34.254Z,63.00
2019-04-04T23:30:03.751Z,62.70
2019-04-04T23:32:33.835Z,62.90
2019-04-04T23:35:05.209Z,62.70
2019-04-04T23:37:34.360Z,62.90
2019-04-04T23:40:15.735Z,62.50
2019-04-04T23:42:53.005Z,62.50
2019-04-04T23:45:26.330Z,62.40
2019-04-04T23:47:55.423Z,62.80
2019-04-04T23:50:35.888Z,62.70
2019-04-04T23:53:05.397Z,63.00
2019-04-04T23:55:35.549Z,63.10
2019-04-04T23:58:04.706Z,63.40
